createdAt,value
2019-05-16T00:01:30.689Z,39.00
2019-05-16T00:04:00.927Z,39.23
2019-05-16T00:06:31.222Z,38.83
2019-05-16T00:09:01.611Z,47.00
2019-05-16T00:11:33.666Z,40.10
2019-05-16T00:14:04.481Z,45.97
2019-05-16T00:16:35.033Z,39.57
2019-05-16T00:19:05.476Z,40.53
2019-05-16T00:21:35.738Z,36.67
2019-05-16T00:24:08.243Z,39.67
2019-05-16T00:26:38.782Z,40.50
2019-05-16T00:29:09.635Z,37.67
2019-05-16T00:31:39.991Z,36.37
2019-05-16T00:34:10.266Z,37.53
2019-05-16T00:36:40.560Z,36.43
2019-05-16T00:39:10.810Z,36.27
2019-05-16T00:41:41.135Z,33.70
2019-05-16T00:44:11.464Z,36.67
2019-05-16T00:46:41.988Z,33.37
2019-05-16T00:49:12.418Z,35.90
2019-05-16T00:51:42.672Z,31.80
2019-05-16T00:54:13.044Z,33.57
2019-05-16T00:56:44.690Z,33.67
2019-05-16T00:59:18.243Z,38.00
2019-05-16T01:01:50.127Z,32.80
2019-05-16T01:04:20.303Z,31.77
2019-05-16T01:06:50.580Z,30.57
2019-05-16T01:09:21.382Z,32.60
2019-05-16T01:11:51.628Z,30.43
2019-05-16T01:14:21.868Z,31.43
2019-05-16T01:16:52.653Z,29.73
2019-05-16T01:19:22.908Z,33.70
2019-05-16T01:21:53.355Z,27.43
2019-05-16T01:24:23.598Z,37.17
2019-05-16T01:26:53.977Z,28.83
2019-05-16T01:29:24.230Z,33.57
2019-05-16T01:31:54.602Z,26.27
2019-05-16T01:34:24.850Z,28.23
2019-05-16T01:36:55.362Z,30.00
2019-05-16T01:39:25.609Z,27.60
2019-05-16T01:41:55.819Z,25.50
2019-05-16T01:44:26.083Z,28.23
2019-05-16T01:46:58.584Z,30.93
2019-05-16T01:49:30.148Z,30.57
2019-05-16T01:52:00.315Z,28.13
2019-05-16T01:54:30.607Z,29.90
2019-05-16T01:57:00.864Z,31.40
2019-05-16T01:59:31.337Z,34.37
2019-05-16T02:02:01.587Z,25.63
2019-05-16T02:04:31.830Z,26.27
2019-05-16T02:07:02.161Z,27.20
2019-05-16T02:09:32.654Z,27.20
2019-05-16T02:12:02.891Z,28.03
2019-05-16T02:14:33.159Z,31.70
2019-05-16T02:17:03.459Z,24.30
2019-05-16T02:19:33.713Z,29.93
2019-05-16T02:22:04.211Z,25.63
2019-05-16T02:24:34.479Z,28.17
2019-05-16T02:27:04.765Z,24.07
2019-05-16T02:29:35.231Z,26.87
2019-05-16T02:32:05.500Z,25.00
2019-05-16T02:34:36.312Z,30.50
2019-05-16T02:37:22.495Z,24.27
2019-05-16T02:39:41.011Z,25.33
2019-05-16T02:42:12.239Z,26.97
2019-05-16T02:44:42.628Z,23.50
2019-05-16T02:47:13.231Z,28.27
2019-05-16T02:49:43.716Z,27.97
2019-05-16T02:52:14.011Z,25.87
2019-05-16T02:54:44.354Z,31.20
2019-05-16T02:57:15.603Z,24.03
2019-05-16T02:59:45.883Z,26.00
2019-05-16T03:02:16.763Z,25.83
2019-05-16T03:04:47.047Z,26.60
2019-05-16T03:07:36.537Z,25.17
2019-05-16T03:09:51.402Z,25.67
2019-05-16T03:12:25.057Z,27.37
2019-05-16T03:15:01.870Z,30.30
2019-05-16T03:17:34.470Z,32.17
2019-05-16T03:20:06.867Z,29.83
2019-05-16T03:22:40.871Z,27.95
2019-05-16T03:25:11.493Z,28.47
2019-05-16T03:27:42.176Z,25.67
2019-05-16T03:30:16.643Z,30.93
2019-05-16T03:32:46.636Z,27.77
2019-05-16T03:35:17.526Z,30.70
2019-05-16T03:37:55.888Z,28.30
2019-05-16T03:40:31.337Z,35.70
2019-05-16T03:43:01.606Z,30.10
2019-05-16T03:45:32.449Z,32.53
2019-05-16T03:48:03.450Z,32.40
2019-05-16T03:50:34.554Z,32.77
2019-05-16T03:53:04.801Z,29.03
2019-05-16T03:55:35.410Z,38.90
2019-05-16T03:58:05.958Z,32.40
2019-05-16T04:00:55.114Z,29.23
2019-05-16T04:03:28.495Z,34.50
2019-05-16T04:06:01.158Z,32.83
2019-05-16T04:08:31.234Z,28.77
2019-05-16T04:11:01.807Z,31.77
2019-05-16T04:13:32.967Z,28.83
2019-05-16T04:16:03.350Z,25.80
2019-05-16T04:18:33.645Z,29.13
2019-05-16T04:21:04.268Z,31.30
2019-05-16T04:23:34.629Z,29.77
2019-05-16T04:26:05.162Z,29.67
2019-05-16T04:28:35.550Z,29.77
2019-05-16T04:31:05.836Z,28.47
2019-05-16T04:33:36.176Z,27.53
2019-05-16T04:36:06.423Z,29.90
2019-05-16T04:38:42.887Z,30.73
2019-05-16T04:41:11.605Z,30.70
2019-05-16T04:43:41.739Z,28.60
2019-05-16T04:46:12.314Z,32.30
2019-05-16T04:48:42.517Z,32.33
2019-05-16T04:51:12.936Z,29.60
2019-05-16T04:53:43.209Z,33.03
2019-05-16T04:56:13.505Z,29.07
2019-05-16T04:58:43.752Z,27.87
2019-05-16T05:01:14.050Z,22.73
2019-05-16T05:04:00.185Z,22.47
2019-05-16T05:06:16.211Z,24.30
2019-05-16T05:08:54.478Z,23.65
2019-05-16T05:11:21.235Z,19.77
2019-05-16T05:13:52.152Z,19.67
2019-05-16T05:16:22.389Z,20.07
2019-05-16T05:18:53.090Z,19.67
2019-05-16T05:21:23.367Z,19.87
2019-05-16T05:23:53.677Z,19.10
2019-05-16T05:26:24.245Z,14.73
2019-05-16T05:28:54.599Z,17.57
2019-05-16T05:31:25.781Z,14.83
2019-05-16T05:33:56.612Z,21.13
2019-05-16T05:36:26.798Z,24.10
2019-05-16T05:39:08.929Z,20.13
2019-05-16T05:41:30.212Z,18.93
2019-05-16T05:44:00.399Z,18.07
2019-05-16T05:46:31.669Z,19.90
2019-05-16T05:49:02.180Z,19.07
2019-05-16T05:51:33.632Z,20.00
2019-05-16T05:54:03.849Z,22.90
2019-05-16T05:56:34.810Z,22.80
2019-05-16T05:59:05.101Z,22.07
2019-05-16T06:01:35.302Z,23.63
2019-05-16T06:04:05.683Z,24.07
2019-05-16T06:06:35.951Z,26.90
2019-05-16T06:09:07.129Z,25.30
2019-05-16T06:11:37.401Z,27.17
2019-05-16T06:14:09.719Z,23.27
2019-05-16T06:16:40.234Z,24.57
2019-05-16T06:19:11.203Z,27.32
2019-05-16T06:21:44.990Z,28.20
2019-05-16T06:24:16.232Z,29.57
2019-05-16T06:26:45.662Z,27.17
2019-05-16T06:29:16.012Z,32.40
2019-05-16T06:31:46.326Z,28.17
2019-05-16T06:34:17.112Z,28.42
2019-05-16T06:36:47.425Z,33.63
2019-05-16T06:39:19.856Z,29.30
2019-05-16T06:41:50.959Z,32.10
2019-05-16T06:44:21.471Z,30.90
2019-05-16T06:47:08.996Z,34.63
2019-05-16T06:49:24.219Z,31.00
2019-05-16T06:51:54.610Z,30.52
2019-05-16T06:54:25.507Z,27.90
2019-05-16T06:56:55.720Z,28.27
2019-05-16T06:59:26.009Z,31.30
2019-05-16T07:01:56.260Z,32.03
2019-05-16T07:04:26.811Z,37.37
2019-05-16T07:06:59.994Z,30.53
2019-05-16T07:09:30.141Z,25.30
2019-05-16T07:12:00.884Z,25.23
2019-05-16T07:14:31.535Z,27.00
2019-05-16T07:17:02.216Z,29.45
2019-05-16T07:19:35.383Z,26.20
2019-05-16T07:22:04.966Z,30.72
2019-05-16T07:24:35.239Z,26.05
2019-05-16T07:27:09.106Z,25.43
2019-05-16T07:29:40.167Z,20.68
2019-05-16T07:32:12.543Z,23.70
2019-05-16T07:34:42.977Z,21.87
2019-05-16T07:37:13.275Z,21.57
2019-05-16T07:39:43.520Z,19.07
2019-05-16T07:42:13.768Z,19.60
2019-05-16T07:44:44.014Z,14.25
2019-05-16T07:47:14.350Z,13.83
2019-05-16T07:49:44.642Z,11.17
2019-05-16T07:52:14.937Z,10.60
2019-05-16T07:54:45.133Z,8.90
2019-05-16T07:57:19.630Z,7.57
2019-05-16T07:59:47.238Z,6.67
2019-05-16T08:02:20.606Z,7.85
2019-05-16T08:04:50.305Z,4.55
2019-05-16T08:07:21.985Z,5.72
2019-05-16T08:09:54.058Z,4.40
2019-05-16T08:12:26.448Z,3.90
2019-05-16T08:14:56.548Z,4.40
2019-05-16T08:17:31.276Z,4.92
2019-05-16T08:20:00.102Z,5.28
2019-05-16T08:22:32.243Z,6.78
2019-05-16T08:25:02.793Z,6.15
2019-05-16T08:27:33.352Z,6.37
2019-05-16T08:30:04.089Z,7.22
2019-05-16T08:32:35.983Z,9.50
2019-05-16T08:35:07.014Z,12.43
2019-05-16T08:37:44.075Z,14.98
2019-05-16T08:40:11.492Z,17.92
2019-05-16T08:42:41.977Z,17.65
2019-05-16T08:45:13.563Z,17.23
2019-05-16T08:47:44.208Z,19.20
2019-05-16T08:50:15.219Z,22.32
2019-05-16T08:52:45.530Z,22.77
2019-05-16T08:55:16.743Z,24.90
2019-05-16T08:57:47.059Z,26.75
2019-05-16T09:00:21.745Z,23.42
2019-05-16T09:02:52.439Z,22.80
2019-05-16T09:05:23.019Z,24.77
2019-05-16T09:08:00.638Z,22.97
2019-05-16T09:12:57.901Z,19.33
2019-05-16T09:15:28.219Z,34.10
2019-05-16T09:17:59.785Z,43.45
2019-05-16T09:20:30.168Z,36.77
2019-05-16T09:23:00.315Z,43.00
2019-05-16T09:25:32.578Z,40.80
2019-05-16T09:28:02.832Z,43.92
2019-05-16T09:30:33.411Z,42.95
2019-05-16T09:33:03.715Z,45.33
2019-05-16T09:35:36.844Z,43.63
2019-05-16T09:38:07.176Z,45.60
2019-05-16T09:40:38.910Z,44.65
2019-05-16T09:43:09.448Z,45.15
2019-05-16T09:45:39.751Z,50.53
2019-05-16T09:48:10.496Z,45.57
2019-05-16T09:50:42.769Z,48.17
2019-05-16T09:53:13.035Z,45.38
2019-05-16T09:55:43.335Z,45.50
2019-05-16T09:58:13.569Z,43.08
2019-05-16T10:00:47.071Z,40.67
2019-05-16T10:03:20.080Z,48.30
2019-05-16T10:05:47.729Z,54.30
2019-05-16T10:08:18.058Z,51.48
2019-05-16T10:10:49.969Z,47.43
2019-05-16T10:13:20.275Z,50.40
2019-05-16T10:15:51.337Z,48.95
2019-05-16T10:18:21.620Z,45.90
2019-05-16T10:20:51.887Z,44.25
2019-05-16T10:23:22.165Z,41.65
2019-05-16T10:25:52.457Z,42.03
2019-05-16T10:28:23.018Z,42.90
2019-05-16T10:30:53.258Z,47.37
2019-05-16T10:33:23.682Z,44.48
2019-05-16T10:35:53.945Z,46.80
2019-05-16T10:38:24.234Z,44.95
2019-05-16T10:40:56.489Z,44.50
2019-05-16T10:43:26.620Z,48.63
2019-05-16T10:45:57.331Z,46.18
2019-05-16T10:48:27.600Z,49.58
2019-05-16T10:50:57.984Z,48.45
2019-05-16T10:53:57.570Z,49.53
2019-05-16T10:56:00.301Z,47.93
2019-05-16T10:58:47.121Z,45.95
2019-05-16T11:01:18.990Z,44.85
2019-05-16T11:03:35.310Z,47.30
2019-05-16T11:06:08.584Z,48.97
2019-05-16T11:08:39.619Z,48.20
2019-05-16T11:11:09.755Z,41.17
2019-05-16T11:13:40.508Z,43.68
2019-05-16T11:16:11.544Z,46.30
2019-05-16T11:18:41.867Z,44.23
2019-05-16T11:21:12.008Z,45.95
2019-05-16T11:23:42.252Z,43.83
2019-05-16T11:26:12.555Z,48.13
2019-05-16T11:28:43.017Z,44.13
2019-05-16T11:31:13.274Z,39.73
2019-05-16T11:33:43.530Z,39.50
2019-05-16T11:36:16.688Z,38.92
2019-05-16T11:38:47.671Z,36.58
2019-05-16T11:41:18.742Z,43.92
2019-05-16T11:43:49.049Z,43.98
2019-05-16T11:46:19.804Z,38.98
2019-05-16T11:48:50.166Z,36.38
2019-05-16T11:51:20.364Z,34.10
2019-05-16T11:53:50.642Z,32.98
2019-05-16T11:56:21.390Z,35.98
2019-05-16T11:58:52.130Z,31.95
2019-05-16T12:01:22.572Z,33.13
2019-05-16T12:03:53.202Z,31.05
2019-05-16T12:06:23.597Z,43.63
2019-05-16T12:08:54.186Z,31.05
2019-05-16T12:11:27.224Z,30.10
2019-05-16T12:13:56.741Z,34.65
2019-05-16T12:16:27.705Z,31.60
2019-05-16T12:18:58.082Z,32.98
2019-05-16T12:21:28.325Z,29.27
2019-05-16T12:23:58.975Z,24.07
2019-05-16T12:26:29.223Z,25.43
2019-05-16T12:28:59.712Z,23.62
2019-05-16T12:31:32.470Z,21.57
2019-05-16T12:34:01.992Z,24.37
2019-05-16T12:36:33.432Z,21.27
2019-05-16T12:39:07.763Z,22.70
2019-05-16T12:41:40.980Z,19.98
2019-05-16T12:44:10.707Z,18.07
2019-05-16T12:46:40.986Z,26.85
2019-05-16T12:49:11.207Z,20.77
2019-05-16T12:51:42.501Z,20.05
2019-05-16T12:54:12.946Z,26.07
2019-05-16T12:56:43.388Z,33.13
2019-05-16T12:59:20.962Z,24.27
2019-05-16T13:01:48.082Z,28.57
2019-05-16T13:04:18.870Z,22.65
2019-05-16T13:06:49.810Z,22.05
2019-05-16T13:09:20.150Z,21.82
2019-05-16T13:11:50.479Z,23.47
2019-05-16T13:14:20.723Z,20.00
2019-05-16T13:16:51.137Z,21.00
2019-05-16T13:19:21.427Z,24.35
2019-05-16T13:21:51.646Z,21.90
2019-05-16T13:24:21.874Z,22.60
2019-05-16T13:26:52.148Z,24.70
2019-05-16T13:29:22.388Z,26.30
2019-05-16T13:31:52.667Z,20.80
2019-05-16T13:34:22.972Z,23.38
2019-05-16T13:36:53.237Z,25.77
2019-05-16T13:39:23.471Z,23.83
2019-05-16T13:41:53.798Z,21.52
2019-05-16T13:44:27.284Z,20.15
2019-05-16T13:46:56.929Z,21.93
2019-05-16T13:49:27.475Z,20.52
2019-05-16T13:51:57.716Z,20.68
2019-05-16T13:54:28.011Z,19.40
2019-05-16T13:56:58.263Z,19.67
2019-05-16T13:59:28.680Z,19.02
2019-05-16T14:01:58.926Z,20.37
2019-05-16T14:04:29.209Z,17.40
2019-05-16T14:07:00.153Z,19.55
2019-05-16T14:09:31.034Z,15.95
2019-05-16T14:12:01.306Z,19.35
2019-05-16T14:14:38.976Z,18.48
2019-05-16T14:17:13.185Z,17.92
2019-05-16T14:19:38.040Z,18.02
2019-05-16T14:22:08.386Z,22.37
2019-05-16T14:24:39.710Z,19.25
2019-05-16T14:27:09.952Z,16.30
2019-05-16T14:29:41.377Z,17.05
2019-05-16T14:32:11.591Z,17.75
2019-05-16T14:34:41.772Z,19.52
2019-05-16T14:37:12.249Z,19.45
2019-05-16T14:39:42.775Z,13.95
2019-05-16T14:42:13.330Z,19.27
2019-05-16T14:44:59.837Z,15.53
2019-05-16T14:47:17.780Z,17.55
2019-05-16T14:49:48.787Z,17.95
2019-05-16T14:52:19.415Z,29.82
2019-05-16T14:54:49.937Z,21.07
2019-05-16T14:57:20.174Z,18.32
2019-05-16T14:59:50.431Z,19.92
2019-05-16T15:02:21.061Z,19.92
2019-05-16T15:04:52.163Z,17.82
2019-05-16T15:07:22.503Z,19.05
2019-05-16T15:09:52.756Z,14.13
2019-05-16T15:12:23.048Z,16.05
2019-05-16T15:14:53.379Z,17.37
2019-05-16T15:17:23.623Z,15.58
2019-05-16T15:19:53.949Z,16.12
2019-05-16T15:22:24.219Z,15.18
2019-05-16T15:24:59.043Z,16.65
2019-05-16T15:27:26.502Z,14.10
2019-05-16T15:29:57.727Z,18.82
2019-05-16T15:32:31.829Z,17.92
2019-05-16T15:35:01.140Z,14.85
2019-05-16T15:37:31.832Z,18.70
2019-05-16T15:40:02.226Z,14.15
2019-05-16T15:42:32.925Z,14.50
2019-05-16T15:45:03.149Z,19.57
2019-05-16T15:47:33.825Z,14.13
2019-05-16T15:50:04.469Z,14.75
2019-05-16T15:52:38.227Z,13.70
2019-05-16T15:55:10.059Z,16.87
2019-05-16T15:57:42.220Z,14.98
2019-05-16T16:00:13.119Z,16.95
2019-05-16T16:02:43.442Z,15.68
2019-05-16T16:05:14.256Z,13.83
2019-05-16T16:07:44.726Z,13.15
2019-05-16T16:10:17.407Z,19.15
2019-05-16T16:12:47.839Z,17.02
2019-05-16T16:15:18.197Z,16.20
2019-05-16T16:17:48.913Z,15.30
2019-05-16T16:20:19.186Z,17.00
2019-05-16T16:22:49.674Z,16.05
2019-05-16T16:25:19.966Z,14.98
2019-05-16T16:27:50.722Z,13.62
2019-05-16T16:30:20.988Z,15.75
2019-05-16T16:32:51.368Z,16.17
2019-05-16T16:35:22.213Z,15.10
2019-05-16T16:37:53.635Z,17.57
2019-05-16T16:40:26.553Z,16.32
2019-05-16T16:42:56.848Z,15.25
2019-05-16T16:45:27.348Z,14.83
2019-05-16T16:47:57.705Z,18.10
2019-05-16T16:50:28.116Z,14.23
2019-05-16T16:52:58.807Z,16.05
2019-05-16T16:55:29.213Z,17.77
2019-05-16T16:57:59.883Z,16.15
2019-05-16T17:00:30.682Z,18.80
2019-05-16T17:03:06.231Z,21.12
2019-05-16T17:05:40.812Z,16.35
2019-05-16T17:08:11.472Z,16.00
2019-05-16T17:10:41.662Z,21.52
2019-05-16T17:13:12.236Z,17.32
2019-05-16T17:15:42.478Z,17.32
2019-05-16T17:18:14.236Z,17.85
2019-05-16T17:20:47.483Z,19.17
2019-05-16T17:23:17.282Z,16.45
2019-05-16T17:25:47.925Z,17.25
2019-05-16T17:28:18.505Z,18.15
2019-05-16T17:30:49.024Z,18.80
2019-05-16T17:33:19.818Z,17.37
2019-05-16T17:35:50.354Z,19.90
2019-05-16T17:38:20.893Z,21.87
2019-05-16T17:40:51.976Z,18.92
2019-05-16T17:43:22.862Z,21.37
2019-05-16T17:45:53.408Z,21.30
2019-05-16T17:48:27.237Z,20.77
2019-05-16T17:50:56.987Z,21.68
2019-05-16T17:53:29.165Z,22.73
2019-05-16T17:55:59.625Z,24.40
2019-05-16T17:58:30.526Z,25.15
2019-05-16T18:01:00.833Z,27.17
2019-05-16T18:03:32.429Z,24.63
2019-05-16T18:06:02.726Z,25.15
2019-05-16T18:08:33.132Z,24.45
2019-05-16T18:11:03.489Z,30.50
2019-05-16T18:13:33.923Z,30.35
2019-05-16T18:16:04.471Z,27.85
2019-05-16T18:18:37.293Z,28.20
2019-05-16T18:21:07.142Z,31.13
2019-05-16T18:23:37.755Z,32.33
2019-05-16T18:26:08.341Z,36.40
2019-05-16T18:28:38.904Z,41.35
2019-05-16T18:31:09.293Z,33.63
2019-05-16T18:33:39.484Z,36.28
2019-05-16T18:36:09.799Z,39.05
2019-05-16T18:38:40.170Z,34.75
2019-05-16T18:41:10.419Z,35.23
2019-05-16T18:43:41.096Z,31.48
2019-05-16T18:46:11.475Z,36.93
2019-05-16T18:48:41.909Z,39.00
2019-05-16T18:51:12.379Z,36.98
2019-05-16T18:53:43.233Z,43.08
2019-05-16T18:56:13.729Z,41.18
2019-05-16T18:58:43.981Z,46.50
2019-05-16T19:01:17.395Z,46.08
2019-05-16T19:03:48.996Z,49.27
2019-05-16T19:06:19.270Z,49.90
2019-05-16T19:08:49.532Z,50.55
2019-05-16T19:11:20.489Z,49.03
2019-05-16T19:13:50.660Z,56.45
2019-05-16T19:16:21.081Z,53.15
2019-05-16T19:18:51.504Z,54.42
2019-05-16T19:21:21.931Z,49.73
2019-05-16T19:23:52.529Z,50.48
2019-05-16T19:26:22.778Z,53.00
2019-05-16T19:28:53.320Z,55.00
2019-05-16T19:31:23.562Z,63.87
2019-05-16T19:33:56.532Z,66.30
2019-05-16T19:36:27.071Z,89.43
2019-05-16T19:38:57.512Z,74.03
2019-05-16T19:41:28.080Z,75.57
2019-05-16T19:43:58.359Z,75.17
2019-05-16T19:46:28.766Z,79.77
2019-05-16T19:49:02.291Z,73.93
2019-05-16T19:51:32.612Z,80.40
2019-05-16T19:54:02.901Z,91.80
2019-05-16T19:56:33.163Z,98.43
2019-05-16T19:59:03.613Z,94.10
2019-05-16T20:01:36.746Z,100.77
2019-05-16T20:04:06.476Z,109.80
2019-05-16T20:06:37.042Z,103.03
2019-05-16T20:09:09.103Z,127.33
2019-05-16T20:11:39.630Z,113.47
2019-05-16T20:14:10.942Z,127.20
2019-05-16T20:16:41.238Z,108.00
2019-05-16T20:19:11.800Z,108.50
2019-05-16T20:21:42.402Z,121.57
2019-05-16T20:24:12.731Z,108.30
2019-05-16T20:26:43.252Z,108.53
2019-05-16T20:29:13.608Z,101.23
2019-05-16T20:31:44.007Z,102.87
2019-05-16T20:34:17.573Z,108.05
2019-05-16T20:36:47.690Z,109.30
2019-05-16T20:39:18.376Z,111.47
2019-05-16T20:41:48.936Z,114.33
2019-05-16T20:44:19.833Z,114.80
2019-05-16T20:46:50.686Z,114.10
2019-05-16T20:49:20.958Z,106.12
2019-05-16T20:51:51.627Z,117.87
2019-05-16T20:54:21.924Z,114.53
2019-05-16T20:56:52.686Z,111.80
2019-05-16T20:59:26.532Z,99.15
2019-05-16T21:01:57.458Z,96.73
2019-05-16T21:04:28.991Z,112.42
2019-05-16T21:07:05.717Z,90.05
2019-05-16T21:09:32.306Z,93.12
2019-05-16T21:12:03.896Z,80.92
2019-05-16T21:14:34.209Z,77.37
2019-05-16T21:17:06.528Z,73.95
2019-05-16T21:19:39.181Z,82.93
2019-05-16T21:22:09.052Z,77.27
2019-05-16T21:24:39.317Z,67.97
2019-05-16T21:27:11.983Z,74.67
2019-05-16T21:29:47.080Z,65.80
2019-05-16T21:32:16.982Z,86.57
2019-05-16T21:34:47.342Z,66.47
2019-05-16T21:37:20.350Z,63.50
2019-05-16T21:39:52.161Z,68.43
2019-05-16T21:42:22.501Z,66.83
2019-05-16T21:44:52.956Z,62.30
2019-05-16T21:47:23.673Z,72.92
2019-05-16T21:49:56.812Z,59.70
2019-05-16T21:52:28.899Z,73.17
2019-05-16T21:54:59.196Z,54.10
2019-05-16T21:57:29.691Z,47.93
2019-05-16T22:00:00.091Z,48.87
2019-05-16T22:02:30.643Z,48.05
2019-05-16T22:05:00.892Z,50.77
2019-05-16T22:07:33.729Z,47.30
2019-05-16T22:10:06.423Z,48.92
2019-05-16T22:12:38.580Z,51.28
2019-05-16T22:15:09.537Z,51.75
2019-05-16T22:17:41.677Z,53.50
2019-05-16T22:20:12.381Z,60.75
2019-05-16T22:22:42.920Z,54.77
2019-05-16T22:25:13.833Z,53.68
2019-05-16T22:27:48.471Z,58.33
2019-05-16T22:30:18.525Z,51.83
2019-05-16T22:32:49.515Z,51.17
2019-05-16T22:35:21.146Z,45.97
2019-05-16T22:37:55.463Z,46.58
2019-05-16T22:40:23.774Z,46.45
2019-05-16T22:42:54.057Z,43.87
2019-05-16T22:45:26.517Z,36.48
2019-05-16T22:47:57.399Z,40.63
2019-05-16T22:50:28.032Z,35.67
2019-05-16T22:52:58.323Z,40.83
2019-05-16T22:55:29.012Z,40.65
2019-05-16T22:57:59.209Z,31.17
2019-05-16T23:00:31.679Z,36.00
2019-05-16T23:03:01.979Z,23.95
2019-05-16T23:05:36.663Z,26.95
2019-05-16T23:08:09.968Z,21.52
2019-05-16T23:10:39.664Z,21.90
2019-05-16T23:13:10.234Z,21.27
2019-05-16T23:15:40.724Z,18.60
2019-05-16T23:18:12.116Z,20.35
2019-05-16T23:20:42.422Z,20.33
2019-05-16T23:23:12.615Z,21.63
2019-05-16T23:25:42.843Z,23.43
2019-05-16T23:28:13.123Z,19.02
2019-05-16T23:30:46.767Z,18.37
2019-05-16T23:33:16.631Z,24.57
2019-05-16T23:35:47.302Z,22.87
2019-05-16T23:38:20.062Z,21.17
2019-05-16T23:40:49.910Z,22.50
2019-05-16T23:43:20.202Z,20.37
2019-05-16T23:45:50.426Z,18.67
2019-05-16T23:48:21.182Z,20.10
2019-05-16T23:50:51.406Z,24.47
2019-05-16T23:53:21.597Z,18.60
2019-05-16T23:55:52.448Z,20.97
2019-05-16T23:58:22.668Z,18.10
